createdAt,value
2018-12-15T00:01:13.437Z,52.68
2018-12-15T00:03:43.248Z,53.30
2018-12-15T00:06:13.464Z,52.89
2018-12-15T00:08:43.072Z,52.42
2018-12-15T00:11:12.616Z,52.72
2018-12-15T00:13:42.010Z,52.85
2018-12-15T00:16:11.308Z,52.05
2018-12-15T00:18:40.728Z,52.57
2018-12-15T00:21:10.109Z,52.72
2018-12-15T00:23:39.482Z,52.71
2018-12-15T00:26:08.802Z,51.63
2018-12-15T00:28:38.069Z,51.51
2018-12-15T00:31:07.255Z,52.08
2018-12-15T00:33:36.736Z,52.59
2018-12-15T00:36:12.450Z,52.22
2018-12-15T00:38:41.677Z,52.68
2018-12-15T00:41:11.380Z,52.66
2018-12-15T00:43:40.967Z,52.64
2018-12-15T00:46:10.492Z,52.17
2018-12-15T00:48:39.730Z,52.26
2018-12-15T00:51:09.093Z,51.62
2018-12-15T00:53:38.509Z,51.43
2018-12-15T00:56:07.780Z,52.15
2018-12-15T00:58:36.887Z,52.04
2018-12-15T01:01:06.331Z,52.06
2018-12-15T01:03:35.593Z,51.72
2018-12-15T01:06:04.841Z,51.79
2018-12-15T01:08:34.372Z,51.12
2018-12-15T01:11:04.055Z,50.80
2018-12-15T01:13:33.677Z,51.52
2018-12-15T01:16:03.720Z,51.98
2018-12-15T01:18:33.305Z,51.35
2018-12-15T01:21:02.624Z,52.21
2018-12-15T01:23:31.789Z,52.47
2018-12-15T01:26:01.037Z,51.88
2018-12-15T01:28:31.472Z,51.74
2018-12-15T01:31:00.903Z,51.95
2018-12-15T01:33:30.188Z,52.22
2018-12-15T01:35:59.579Z,52.99
2018-12-15T01:38:28.874Z,53.05
2018-12-15T01:40:58.131Z,53.38
2018-12-15T01:43:27.287Z,53.22
2018-12-15T01:45:56.684Z,52.89
2018-12-15T01:48:25.913Z,54.10
2018-12-15T01:50:55.210Z,53.29
2018-12-15T01:53:24.418Z,53.79
2018-12-15T01:55:53.736Z,53.92
2018-12-15T01:58:22.795Z,53.41
2018-12-15T02:00:52.295Z,53.29
2018-12-15T02:03:21.509Z,53.96
2018-12-15T02:05:50.775Z,53.86
2018-12-15T02:08:20.288Z,52.99
2018-12-15T02:10:49.475Z,53.00
2018-12-15T02:13:18.587Z,52.17
2018-12-15T02:15:47.864Z,51.91
2018-12-15T02:18:17.261Z,53.44
2018-12-15T02:20:46.751Z,53.82
2018-12-15T02:23:16.077Z,53.74
2018-12-15T02:25:45.276Z,53.88
2018-12-15T02:28:14.750Z,54.18
2018-12-15T02:30:43.982Z,54.01
2018-12-15T02:33:13.173Z,54.74
2018-12-15T02:35:42.684Z,54.41
2018-12-15T02:38:12.033Z,54.59
2018-12-15T02:40:41.388Z,55.01
2018-12-15T02:43:10.807Z,54.30
2018-12-15T02:45:40.194Z,54.07
2018-12-15T02:48:09.556Z,54.20
2018-12-15T02:50:38.759Z,54.51
2018-12-15T02:53:08.116Z,55.07
2018-12-15T02:55:37.409Z,55.09
2018-12-15T02:58:06.842Z,55.68
2018-12-15T03:00:36.226Z,54.94
2018-12-15T03:03:05.501Z,54.64
2018-12-15T03:05:34.779Z,54.08
2018-12-15T03:08:04.044Z,54.01
2018-12-15T03:10:33.367Z,53.70
2018-12-15T03:13:02.627Z,52.96
2018-12-15T03:15:32.026Z,51.62
2018-12-15T03:18:01.418Z,53.60
2018-12-15T03:20:30.663Z,53.79
2018-12-15T03:22:59.991Z,54.09
2018-12-15T03:25:29.164Z,52.67
2018-12-15T03:27:58.425Z,51.45
2018-12-15T03:30:27.696Z,51.11
2018-12-15T03:32:57.013Z,50.14
2018-12-15T03:35:26.161Z,48.78
2018-12-15T03:37:55.476Z,49.08
2018-12-15T03:40:24.552Z,49.21
2018-12-15T03:42:53.819Z,49.93
2018-12-15T03:45:23.032Z,50.51
2018-12-15T03:47:56.147Z,50.39
2018-12-15T03:50:23.622Z,50.60
2018-12-15T03:52:52.884Z,50.06
2018-12-15T03:55:22.084Z,50.00
2018-12-15T03:57:51.440Z,52.34
2018-12-15T04:00:20.719Z,52.44
2018-12-15T04:02:50.124Z,51.55
2018-12-15T04:05:19.544Z,52.76
2018-12-15T04:07:48.968Z,52.66
2018-12-15T04:10:18.271Z,51.96
2018-12-15T04:12:47.616Z,51.23
2018-12-15T04:15:17.045Z,51.30
2018-12-15T04:17:46.490Z,52.54
2018-12-15T04:20:15.580Z,52.78
2018-12-15T04:22:44.715Z,54.23
2018-12-15T04:25:14.092Z,55.07
2018-12-15T04:27:43.129Z,55.72
2018-12-15T04:30:12.464Z,56.55
2018-12-15T04:32:45.113Z,55.70
2018-12-15T04:35:12.993Z,55.18
2018-12-15T04:37:43.075Z,55.54
2018-12-15T04:40:13.168Z,54.45
2018-12-15T04:42:42.487Z,55.75
2018-12-15T04:45:11.781Z,58.01
2018-12-15T04:47:41.753Z,58.26
2018-12-15T04:50:10.927Z,62.40
2018-12-15T04:52:40.085Z,63.09
2018-12-15T04:55:09.450Z,64.05
2018-12-15T04:57:39.790Z,65.16
2018-12-15T05:00:09.273Z,64.37
2018-12-15T05:02:43.849Z,64.13
2018-12-15T05:05:09.731Z,64.28
2018-12-15T05:07:39.076Z,63.96
2018-12-15T05:10:08.336Z,64.22
2018-12-15T05:12:37.782Z,65.56
2018-12-15T05:15:07.236Z,64.12
2018-12-15T05:17:36.471Z,64.82
2018-12-15T05:20:07.362Z,64.88
2018-12-15T05:22:36.805Z,64.80
2018-12-15T05:25:06.680Z,64.29
2018-12-15T05:27:35.993Z,65.34
2018-12-15T05:30:05.817Z,65.19
2018-12-15T05:32:35.164Z,68.08
2018-12-15T05:35:04.397Z,68.65
2018-12-15T05:37:33.643Z,68.98
2018-12-15T05:40:03.011Z,69.18
2018-12-15T05:42:32.317Z,68.96
2018-12-15T05:45:01.435Z,68.72
2018-12-15T05:47:31.140Z,68.07
2018-12-15T05:50:00.758Z,69.04
2018-12-15T05:52:30.370Z,68.48
2018-12-15T05:54:59.583Z,67.34
2018-12-15T05:57:28.961Z,66.63
2018-12-15T05:59:58.128Z,65.32
2018-12-15T06:02:28.141Z,64.29
2018-12-15T06:04:58.979Z,62.89
2018-12-15T06:07:28.387Z,62.36
2018-12-15T06:09:57.996Z,62.13
2018-12-15T06:12:27.391Z,62.18
2018-12-15T06:14:56.572Z,61.44
2018-12-15T06:17:25.721Z,62.63
2018-12-15T06:19:54.953Z,62.11
2018-12-15T06:22:24.378Z,61.38
2018-12-15T06:24:53.582Z,61.32
2018-12-15T06:27:23.007Z,60.90
2018-12-15T06:29:52.269Z,60.07
2018-12-15T06:32:21.519Z,59.29
2018-12-15T06:34:50.876Z,58.83
2018-12-15T06:37:20.231Z,60.35
2018-12-15T06:39:49.699Z,60.12
2018-12-15T06:42:19.108Z,60.29
2018-12-15T06:44:48.429Z,60.65
2018-12-15T06:47:17.697Z,60.88
2018-12-15T06:49:47.182Z,60.19
2018-12-15T06:52:16.404Z,59.00
2018-12-15T06:54:46.063Z,58.29
2018-12-15T06:57:15.320Z,58.12
2018-12-15T06:59:44.656Z,58.17
2018-12-15T07:02:14.206Z,57.86
2018-12-15T07:04:43.799Z,57.88
2018-12-15T07:07:13.121Z,57.91
2018-12-15T07:09:42.625Z,57.63
2018-12-15T07:12:12.116Z,57.79
2018-12-15T07:14:41.497Z,57.76
2018-12-15T07:17:10.796Z,57.90
2018-12-15T07:19:40.167Z,58.53
2018-12-15T07:22:09.460Z,57.70
2018-12-15T07:24:38.843Z,58.35
2018-12-15T07:27:08.064Z,58.01
2018-12-15T07:29:37.214Z,58.63
2018-12-15T07:32:06.508Z,59.12
2018-12-15T07:34:35.971Z,58.38
2018-12-15T07:37:05.257Z,57.72
2018-12-15T07:39:34.187Z,57.58
2018-12-15T07:42:03.372Z,58.81
2018-12-15T07:44:32.948Z,58.70
2018-12-15T07:47:02.417Z,58.02
2018-12-15T07:49:31.723Z,57.07
2018-12-15T07:52:01.315Z,55.98
2018-12-15T07:54:30.694Z,54.95
2018-12-15T07:56:59.812Z,58.33
2018-12-15T07:59:29.091Z,59.25
2018-12-15T08:01:58.430Z,59.97
2018-12-15T08:04:27.650Z,60.36
2018-12-15T08:06:57.063Z,60.10
2018-12-15T08:09:26.496Z,60.04
2018-12-15T08:12:00.715Z,60.31
2018-12-15T08:14:29.888Z,59.82
2018-12-15T08:16:59.224Z,60.11
2018-12-15T08:19:28.584Z,60.26
2018-12-15T08:21:57.827Z,60.51
2018-12-15T08:24:27.262Z,59.85
2018-12-15T08:26:56.482Z,60.30
2018-12-15T08:29:25.879Z,60.18
2018-12-15T08:31:55.078Z,60.05
2018-12-15T08:34:24.412Z,60.07
2018-12-15T08:36:53.584Z,59.24
2018-12-15T08:39:22.967Z,58.98
2018-12-15T08:41:52.240Z,58.84
2018-12-15T08:44:21.502Z,58.92
2018-12-15T08:46:50.640Z,59.02
2018-12-15T08:49:19.934Z,58.51
2018-12-15T08:51:49.244Z,58.55
2018-12-15T08:54:18.452Z,58.76
2018-12-15T08:56:47.689Z,58.60
2018-12-15T08:59:17.052Z,58.61
2018-12-15T09:01:46.461Z,58.87
2018-12-15T09:04:15.617Z,57.63
2018-12-15T09:06:44.841Z,58.53
2018-12-15T09:09:14.023Z,57.97
2018-12-15T09:11:43.428Z,58.46
2018-12-15T09:14:12.547Z,58.26
2018-12-15T09:16:41.901Z,58.38
2018-12-15T09:19:11.602Z,58.62
2018-12-15T09:21:41.181Z,58.66
2018-12-15T09:24:10.228Z,58.61
2018-12-15T09:26:39.504Z,58.05
2018-12-15T09:29:08.677Z,58.43
2018-12-15T09:31:37.981Z,58.17
2018-12-15T09:34:07.391Z,58.45
2018-12-15T09:36:36.917Z,57.14
2018-12-15T09:39:07.251Z,57.51
2018-12-15T09:41:36.455Z,56.89
2018-12-15T09:44:05.606Z,56.82
2018-12-15T09:46:35.124Z,56.91
2018-12-15T09:49:04.512Z,57.52
2018-12-15T09:51:33.858Z,57.47
2018-12-15T09:54:03.221Z,57.53
2018-12-15T09:56:32.533Z,56.91
2018-12-15T09:59:01.822Z,56.64
2018-12-15T10:01:31.008Z,56.27
2018-12-15T10:04:00.179Z,56.67
2018-12-15T10:06:29.471Z,57.18
2018-12-15T10:08:58.648Z,56.94
2018-12-15T10:11:28.156Z,56.51
2018-12-15T10:13:57.520Z,57.37
2018-12-15T10:16:26.831Z,56.83
2018-12-15T10:18:56.200Z,56.81
2018-12-15T10:21:25.539Z,57.19
2018-12-15T10:23:54.964Z,56.18
2018-12-15T10:26:24.276Z,56.56
2018-12-15T10:28:53.497Z,57.44
2018-12-15T10:31:27.788Z,58.00
2018-12-15T10:33:56.879Z,56.48
2018-12-15T10:36:26.310Z,56.66
2018-12-15T10:38:55.670Z,57.10
2018-12-15T10:41:25.031Z,57.05
2018-12-15T10:43:54.415Z,57.48
2018-12-15T10:46:23.853Z,56.91
2018-12-15T10:48:53.259Z,57.22
2018-12-15T10:51:23.549Z,57.01
2018-12-15T10:53:52.906Z,56.57
2018-12-15T10:56:22.238Z,57.40
2018-12-15T10:58:51.771Z,57.16
2018-12-15T11:01:22.717Z,57.38
2018-12-15T11:03:52.213Z,58.29
2018-12-15T11:06:21.548Z,57.03
2018-12-15T11:08:50.939Z,57.40
2018-12-15T11:11:20.240Z,57.31
2018-12-15T11:16:31.752Z,57.33
2018-12-15T11:19:01.558Z,57.36
2018-12-15T11:21:30.871Z,57.20
2018-12-15T11:24:00.327Z,57.64
2018-12-15T11:26:29.528Z,57.57
2018-12-15T11:28:58.867Z,57.86
2018-12-15T11:31:29.105Z,57.11
2018-12-15T11:33:58.492Z,56.51
2018-12-15T11:36:27.896Z,57.07
2018-12-15T11:38:57.195Z,57.33
2018-12-15T11:41:26.768Z,58.03
2018-12-15T11:43:56.148Z,57.32
2018-12-15T11:46:25.407Z,57.77
2018-12-15T11:48:54.766Z,57.51
2018-12-15T11:51:24.087Z,56.72
2018-12-15T11:53:53.553Z,57.28
2018-12-15T11:56:22.867Z,56.74
2018-12-15T11:58:52.351Z,56.29
2018-12-15T12:01:21.707Z,56.43
2018-12-15T12:03:51.016Z,57.11
2018-12-15T12:06:20.507Z,55.92
2018-12-15T12:08:50.019Z,55.77
2018-12-15T12:11:19.342Z,56.34
2018-12-15T12:13:48.797Z,56.78
2018-12-15T12:16:18.007Z,55.93
2018-12-15T12:18:47.195Z,55.99
2018-12-15T12:21:16.984Z,56.57
2018-12-15T12:23:46.232Z,55.73
2018-12-15T12:26:15.629Z,55.82
2018-12-15T12:28:45.104Z,56.10
2018-12-15T12:31:14.328Z,55.64
2018-12-15T12:33:43.641Z,55.47
2018-12-15T12:36:12.858Z,55.21
2018-12-15T12:38:42.253Z,56.12
2018-12-15T12:41:11.687Z,56.08
2018-12-15T12:43:41.323Z,56.04
2018-12-15T12:46:10.776Z,56.67
2018-12-15T12:48:40.198Z,57.06
2018-12-15T12:51:09.707Z,56.53
2018-12-15T12:53:39.027Z,57.22
2018-12-15T12:56:08.315Z,56.91
2018-12-15T12:58:37.459Z,55.91
2018-12-15T13:01:06.871Z,56.37
2018-12-15T13:03:36.058Z,56.71
2018-12-15T13:06:05.378Z,56.60
2018-12-15T13:08:34.669Z,56.19
2018-12-15T13:11:04.104Z,56.06
2018-12-15T13:13:33.922Z,55.66
2018-12-15T13:16:03.529Z,55.20
2018-12-15T13:18:32.895Z,56.04
2018-12-15T13:21:02.403Z,55.86
2018-12-15T13:23:31.673Z,55.88
2018-12-15T13:26:01.020Z,55.96
2018-12-15T13:28:30.386Z,56.17
2018-12-15T13:31:00.030Z,55.41
2018-12-15T13:33:34.239Z,55.71
2018-12-15T13:36:03.698Z,55.21
2018-12-15T13:38:32.982Z,55.31
2018-12-15T13:41:13.980Z,55.54
2018-12-15T13:43:43.047Z,55.46
2018-12-15T13:46:14.075Z,55.26
2018-12-15T13:48:43.979Z,54.92
2018-12-15T13:51:13.476Z,54.75
2018-12-15T13:53:42.896Z,55.46
2018-12-15T13:56:12.244Z,55.22
2018-12-15T13:58:42.085Z,55.62
2018-12-15T14:01:11.397Z,55.38
2018-12-15T14:03:40.794Z,55.08
2018-12-15T14:06:10.088Z,55.36
2018-12-15T14:08:39.479Z,55.57
2018-12-15T14:11:08.764Z,55.18
2018-12-15T14:13:38.099Z,55.24
2018-12-15T14:16:07.315Z,55.53
2018-12-15T14:18:36.567Z,55.52
2018-12-15T14:21:05.724Z,55.03
2018-12-15T14:23:34.936Z,55.39
2018-12-15T14:26:05.575Z,55.17
2018-12-15T14:28:35.071Z,55.39
2018-12-15T14:31:04.189Z,55.28
2018-12-15T14:33:33.387Z,56.12
2018-12-15T14:36:02.666Z,55.34
2018-12-15T14:38:31.908Z,55.53
2018-12-15T14:41:01.443Z,56.08
2018-12-15T14:43:30.831Z,56.42
2018-12-15T14:46:00.145Z,56.45
2018-12-15T14:48:29.533Z,55.59
2018-12-15T14:50:58.636Z,55.46
2018-12-15T14:53:27.900Z,55.76
2018-12-15T14:55:56.966Z,56.27
2018-12-15T14:58:26.348Z,56.27
2018-12-15T15:00:55.615Z,56.37
2018-12-15T15:03:24.824Z,56.58
2018-12-15T15:05:54.181Z,56.96
2018-12-15T15:08:23.519Z,56.40
2018-12-15T15:10:52.810Z,56.62
2018-12-15T15:13:21.987Z,56.75
2018-12-15T15:15:51.211Z,57.11
2018-12-15T15:18:20.579Z,57.61
2018-12-15T15:20:49.879Z,57.11
2018-12-15T15:23:19.125Z,57.36
2018-12-15T15:25:48.333Z,57.01
2018-12-15T15:28:17.615Z,56.79
2018-12-15T15:30:46.857Z,56.72
2018-12-15T15:33:16.102Z,56.88
2018-12-15T15:35:45.489Z,56.19
2018-12-15T15:38:14.539Z,56.90
2018-12-15T15:40:43.976Z,56.77
2018-12-15T15:43:13.216Z,55.32
2018-12-15T15:45:42.447Z,56.28
2018-12-15T15:48:11.753Z,56.46
2018-12-15T15:50:40.909Z,56.85
2018-12-15T15:53:10.128Z,56.69
2018-12-15T15:55:39.428Z,57.27
2018-12-15T15:58:08.565Z,57.34
2018-12-15T16:00:37.743Z,57.29
2018-12-15T16:03:07.012Z,57.56
2018-12-15T16:05:36.303Z,57.20
2018-12-15T16:08:05.432Z,57.39
2018-12-15T16:10:35.032Z,57.54
2018-12-15T16:13:04.943Z,57.47
2018-12-15T16:15:34.951Z,57.47
2018-12-15T16:18:04.215Z,57.48
2018-12-15T16:20:33.564Z,57.47
2018-12-15T16:23:02.792Z,57.96
2018-12-15T16:25:32.159Z,58.30
2018-12-15T16:28:01.445Z,57.57
2018-12-15T16:30:30.628Z,58.00
2018-12-15T16:33:00.081Z,58.05
2018-12-15T16:35:29.236Z,58.51
2018-12-15T16:37:58.588Z,58.28
2018-12-15T16:40:27.888Z,58.16
2018-12-15T16:42:57.149Z,58.56
2018-12-15T16:45:26.613Z,58.27
2018-12-15T16:47:55.871Z,58.23
2018-12-15T16:50:24.990Z,58.40
2018-12-15T16:52:54.353Z,58.20
2018-12-15T16:55:23.775Z,58.19
2018-12-15T16:57:52.988Z,57.80
2018-12-15T17:00:22.076Z,57.45
2018-12-15T17:02:51.425Z,57.24
2018-12-15T17:05:20.793Z,57.54
2018-12-15T17:07:50.359Z,57.23
2018-12-15T17:10:19.458Z,57.17
2018-12-15T17:12:48.895Z,57.44
2018-12-15T17:15:18.176Z,57.46
2018-12-15T17:17:47.589Z,57.37
2018-12-15T17:20:16.954Z,58.33
2018-12-15T17:22:46.548Z,57.72
2018-12-15T17:25:16.133Z,57.15
2018-12-15T17:27:45.400Z,56.60
2018-12-15T17:30:14.838Z,57.57
2018-12-15T17:32:44.126Z,57.31
2018-12-15T17:35:13.486Z,57.20
2018-12-15T17:37:42.836Z,57.30
2018-12-15T17:40:12.439Z,58.17
2018-12-15T17:42:41.648Z,57.80
2018-12-15T17:45:11.068Z,57.95
2018-12-15T17:47:40.289Z,58.15
2018-12-15T17:50:10.595Z,57.87
2018-12-15T17:52:39.810Z,57.09
2018-12-15T17:55:09.112Z,57.21
2018-12-15T17:57:38.425Z,57.72
2018-12-15T18:00:10.197Z,57.67
2018-12-15T18:02:39.531Z,57.37
2018-12-15T18:05:09.672Z,57.82
2018-12-15T18:07:38.856Z,57.61
2018-12-15T18:10:09.157Z,58.58
2018-12-15T18:12:38.491Z,57.98
2018-12-15T18:15:08.429Z,58.14
2018-12-15T18:17:37.599Z,57.80
2018-12-15T18:20:08.113Z,57.46
2018-12-15T18:22:37.308Z,57.05
2018-12-15T18:25:06.768Z,57.15
2018-12-15T18:27:36.043Z,56.81
2018-12-15T18:30:06.336Z,56.54
2018-12-15T18:32:35.540Z,58.17
2018-12-15T18:35:04.631Z,58.39
2018-12-15T18:37:33.768Z,58.03
2018-12-15T18:40:02.992Z,58.49
2018-12-15T18:42:32.223Z,58.26
2018-12-15T18:45:01.516Z,58.52
2018-12-15T18:47:30.747Z,58.47
2018-12-15T18:49:59.867Z,58.73
2018-12-15T18:52:29.228Z,58.05
2018-12-15T18:54:58.471Z,57.83
2018-12-15T18:57:27.859Z,57.61
2018-12-15T18:59:57.173Z,57.13
2018-12-15T19:02:26.548Z,57.95
2018-12-15T19:04:55.895Z,57.46
2018-12-15T19:07:25.022Z,57.39
2018-12-15T19:09:54.303Z,57.39
2018-12-15T19:12:23.524Z,57.00
2018-12-15T19:14:52.905Z,57.01
2018-12-15T19:17:22.109Z,56.82
2018-12-15T19:19:51.312Z,57.30
2018-12-15T19:22:20.659Z,56.53
2018-12-15T19:24:50.071Z,57.13
2018-12-15T19:27:19.332Z,56.91
2018-12-15T19:29:48.880Z,56.94
2018-12-15T19:32:18.172Z,57.10
2018-12-15T19:34:52.445Z,56.96
2018-12-15T19:37:18.631Z,57.40
2018-12-15T19:39:47.900Z,57.14
2018-12-15T19:42:17.275Z,56.61
2018-12-15T19:44:46.522Z,56.53
2018-12-15T19:47:15.836Z,57.42
2018-12-15T19:49:45.178Z,56.84
2018-12-15T19:52:14.522Z,55.53
2018-12-15T19:54:43.865Z,56.04
2018-12-15T19:57:13.127Z,56.43
2018-12-15T19:59:42.414Z,56.74
2018-12-15T20:02:11.609Z,56.70
2018-12-15T20:04:40.816Z,56.28
2018-12-15T20:07:10.128Z,56.61
2018-12-15T20:09:39.698Z,56.41
2018-12-15T20:12:09.015Z,56.43
2018-12-15T20:14:38.717Z,56.86
2018-12-15T20:17:07.884Z,56.71
2018-12-15T20:19:37.096Z,56.75
2018-12-15T20:22:06.288Z,56.06
2018-12-15T20:24:35.798Z,56.38
2018-12-15T20:27:05.201Z,55.94
2018-12-15T20:29:34.527Z,56.59
2018-12-15T20:32:03.989Z,56.38
2018-12-15T20:34:33.180Z,56.31
2018-12-15T20:37:02.556Z,56.13
2018-12-15T20:39:31.972Z,56.15
2018-12-15T20:42:01.145Z,56.39
2018-12-15T20:44:30.288Z,56.66
2018-12-15T20:46:59.864Z,56.15
2018-12-15T20:49:29.177Z,56.79
2018-12-15T20:51:58.447Z,56.58
2018-12-15T20:54:27.540Z,56.59
2018-12-15T20:56:56.684Z,56.78
2018-12-15T20:59:26.719Z,56.53
2018-12-15T21:01:55.943Z,57.23
2018-12-15T21:04:25.174Z,56.80
2018-12-15T21:06:54.592Z,57.32
2018-12-15T21:09:23.852Z,56.65
2018-12-15T21:11:53.123Z,56.69
2018-12-15T21:14:22.419Z,56.51
2018-12-15T21:16:51.528Z,56.73
2018-12-15T21:19:20.775Z,56.89
2018-12-15T21:21:50.171Z,57.40
2018-12-15T21:24:19.776Z,56.66
2018-12-15T21:26:48.927Z,57.06
2018-12-15T21:29:18.255Z,57.25
2018-12-15T21:31:47.577Z,57.29
2018-12-15T21:34:16.940Z,57.51
2018-12-15T21:36:46.123Z,57.58
2018-12-15T21:39:15.368Z,57.50
2018-12-15T21:41:44.633Z,57.43
2018-12-15T21:44:13.908Z,57.98
2018-12-15T21:46:43.359Z,58.42
2018-12-15T21:49:12.568Z,58.07
2018-12-15T21:51:42.079Z,58.55
2018-12-15T21:54:11.525Z,58.78
2018-12-15T21:56:40.960Z,59.11
2018-12-15T21:59:10.363Z,59.28
2018-12-15T22:01:40.979Z,59.35
2018-12-15T22:04:10.466Z,59.45
2018-12-15T22:06:39.780Z,58.98
2018-12-15T22:09:09.272Z,59.59
2018-12-15T22:11:38.632Z,60.12
2018-12-15T22:14:08.346Z,60.04
2018-12-15T22:16:37.741Z,60.23
2018-12-15T22:19:07.063Z,60.39
2018-12-15T22:21:36.455Z,59.98
2018-12-15T22:24:06.011Z,59.73
2018-12-15T22:26:35.364Z,60.22
2018-12-15T22:29:04.728Z,60.10
2018-12-15T22:31:34.555Z,60.01
2018-12-15T22:34:03.880Z,60.64
2018-12-15T22:36:33.339Z,61.06
2018-12-15T22:39:02.604Z,60.59
2018-12-15T22:41:31.863Z,60.96
2018-12-15T22:44:01.234Z,60.89
2018-12-15T22:46:30.527Z,60.52
2018-12-15T22:48:59.951Z,61.01
2018-12-15T22:51:29.020Z,60.71
2018-12-15T22:53:58.387Z,60.79
2018-12-15T22:56:27.845Z,61.00
2018-12-15T22:58:57.260Z,60.38
2018-12-15T23:01:26.553Z,60.62
2018-12-15T23:03:55.868Z,60.66
2018-12-15T23:06:25.300Z,60.82
2018-12-15T23:08:54.759Z,60.87
2018-12-15T23:11:23.945Z,61.06
2018-12-15T23:13:53.191Z,61.70
2018-12-15T23:16:22.593Z,61.58
2018-12-15T23:18:51.985Z,61.75
2018-12-15T23:21:21.172Z,61.50
2018-12-15T23:23:50.419Z,61.52
2018-12-15T23:26:19.627Z,61.42
2018-12-15T23:28:48.924Z,61.69
2018-12-15T23:31:18.332Z,61.91
2018-12-15T23:33:47.524Z,61.94
2018-12-15T23:36:16.923Z,62.15
2018-12-15T23:38:46.173Z,62.32
2018-12-15T23:41:15.475Z,62.54
2018-12-15T23:43:44.973Z,62.99
2018-12-15T23:46:14.260Z,62.36
2018-12-15T23:48:43.505Z,62.60
2018-12-15T23:51:12.715Z,62.42
2018-12-15T23:53:41.867Z,62.70
2018-12-15T23:56:11.310Z,62.65
2018-12-15T23:58:40.635Z,62.21
